Time;durP1;ratioP1;P1;durP2;ratioP2;P2;SDS_P1;SDS_P2;PMS_P1;PMS_P2;Temp;Humidity;BMP_temperature;BMP_pressure;BME280_temperature;BME280_humidity;BME280_pressure;Samples;Min_cycle;Max_cycle;Signal;HPM_P1;HPM_P2
2023/05/14 00:02:25;;;;;;;4.47;3.87;;;;;;;;;;5011475;28;20210;-80
2023/05/14 00:04:52;;;;;;;3.83;3.50;;;;;;;;;;4990606;28;20180;-79
2023/05/14 00:07:18;;;;;;;3.60;3.30;;;;;;;;;;5008745;28;20189;-79
2023/05/14 00:09:45;;;;;;;3.60;3.30;;;;;;;;;;5012940;28;20190;-79
2023/05/14 00:12:11;;;;;;;4.13;3.70;;;;;;;;;;5011976;28;20223;-81
2023/05/14 00:14:37;;;;;;;4.00;3.60;;;;;;;;;;5010026;28;20643;-80
2023/05/14 00:17:05;;;;;;;4.90;3.90;;;;;;;;;;5011579;28;20262;-80
2023/05/14 00:19:32;;;;;;;3.97;3.63;;;;;;;;;;5016501;28;20183;-80
2023/05/14 00:21:58;;;;;;;4.90;3.70;;;;;;;;;;5018034;28;20367;-80
2023/05/14 00:24:24;;;;;;;4.43;4.03;;;;;;;;;;5016659;28;20677;-81
2023/05/14 00:26:50;;;;;;;4.33;3.73;;;;;;;;;;5000437;28;20201;-80
2023/05/14 00:29:17;;;;;;;4.30;3.90;;;;;;;;;;5001061;28;20179;-80
2023/05/14 00:31:43;;;;;;;4.53;4.00;;;;;;;;;;4983253;28;20179;-81
2023/05/14 00:34:09;;;;;;;4.70;4.00;;;;;;;;;;5020708;28;20205;-81
2023/05/14 00:36:35;;;;;;;4.33;3.90;;;;;;;;;;5021176;28;20218;-81
2023/05/14 00:39:02;;;;;;;4.73;3.97;;;;;;;;;;5019728;28;20179;-81
2023/05/14 00:41:29;;;;;;;4.53;4.00;;;;;;;;;;5006414;28;20209;-80
2023/05/14 00:43:59;;;;;;;4.30;3.90;;;;;;;;;;5018098;28;20202;-81
2023/05/14 00:46:28;;;;;;;4.77;3.83;;;;;;;;;;5024490;28;20235;-80
2023/05/14 00:48:55;;;;;;;4.27;3.87;;;;;;;;;;4992707;28;20183;-80
2023/05/14 00:51:22;;;;;;;6.20;3.87;;;;;;;;;;5027606;28;20180;-80
2023/05/14 00:53:50;;;;;;;3.93;3.63;;;;;;;;;;5021097;28;20260;-81
2023/05/14 00:56:17;;;;;;;4.77;3.93;;;;;;;;;;4984609;28;20179;-80
2023/05/14 00:58:44;;;;;;;4.50;4.10;;;;;;;;;;5021210;28;20183;-80
2023/05/14 01:01:13;;;;;;;3.87;3.57;;;;;;;;;;5018191;28;20175;-81
2023/05/14 01:03:42;;;;;;;4.10;3.80;;;;;;;;;;4999468;28;20595;-81
2023/05/14 01:06:25;;;;;;;3.70;3.40;;;;;;;;;;4987380;28;20187;-80
2023/05/14 01:09:05;;;;;;;4.20;3.77;;;;;;;;;;5036476;28;20545;-81
2023/05/14 01:11:36;;;;;;;3.83;3.43;;;;;;;;;;5013139;28;20236;-80
2023/05/14 01:14:15;;;;;;;3.70;3.40;;;;;;;;;;5002005;28;20238;-81
2023/05/14 01:16:42;;;;;;;4.20;3.80;;;;;;;;;;5018721;28;20182;-80
2023/05/14 01:19:16;;;;;;;3.93;3.60;;;;;;;;;;5001708;28;20183;-81
2023/05/14 01:21:43;;;;;;;4.00;3.60;;;;;;;;;;5019535;28;20272;-81
2023/05/14 01:24:10;;;;;;;3.90;3.60;;;;;;;;;;4999700;28;20268;-81
2023/05/14 01:26:37;;;;;;;4.67;3.70;;;;;;;;;;5023699;28;20191;-80
2023/05/14 01:29:23;;;;;;;3.70;3.40;;;;;;;;;;5020071;28;20187;-81
2023/05/14 01:31:50;;;;;;;3.67;3.37;;;;;;;;;;4996229;28;20205;-80
2023/05/14 01:34:19;;;;;;;4.20;3.43;;;;;;;;;;5007896;28;20182;-80
2023/05/14 01:36:46;;;;;;;4.63;3.10;;;;;;;;;;4996480;28;20179;-80
2023/05/14 01:39:14;;;;;;;3.50;3.20;;;;;;;;;;4996825;28;20226;-80
2023/05/14 01:41:41;;;;;;;4.67;3.80;;;;;;;;;;5018787;28;20214;-80
2023/05/14 01:44:10;;;;;;;4.90;3.83;;;;;;;;;;4998635;28;20227;-80
2023/05/14 01:46:37;;;;;;;3.87;3.57;;;;;;;;;;5044284;28;20190;-80
2023/05/14 01:49:03;;;;;;;3.77;3.47;;;;;;;;;;5014714;28;20270;-80
2023/05/14 01:51:29;;;;;;;4.17;3.77;;;;;;;;;;4998528;28;20179;-80
2023/05/14 01:53:55;;;;;;;3.97;3.60;;;;;;;;;;5016634;28;20205;-80
2023/05/14 01:56:22;;;;;;;4.00;3.50;;;;;;;;;;5015976;28;20178;-79
2023/05/14 01:58:49;;;;;;;3.90;3.60;;;;;;;;;;5001458;28;20249;-80
2023/05/14 02:01:15;;;;;;;3.47;3.17;;;;;;;;;;5012676;28;20554;-80
2023/05/14 02:03:41;;;;;;;4.17;3.80;;;;;;;;;;5011886;28;20269;-80
2023/05/14 02:06:07;;;;;;;4.37;3.97;;;;;;;;;;4999475;28;20259;-80
2023/05/14 02:08:34;;;;;;;4.40;4.00;;;;;;;;;;5012156;28;20258;-80
2023/05/14 02:11:00;;;;;;;4.70;4.10;;;;;;;;;;4996675;28;20187;-80
2023/05/14 02:13:26;;;;;;;5.70;4.70;;;;;;;;;;4995834;28;20584;-80
2023/05/14 02:15:52;;;;;;;5.50;4.57;;;;;;;;;;5004745;28;20301;-80
2023/05/14 02:18:18;;;;;;;5.67;4.60;;;;;;;;;;5008275;28;20287;-80
2023/05/14 02:20:45;;;;;;;5.20;4.70;;;;;;;;;;5013102;28;20397;-80
2023/05/14 02:23:11;;;;;;;4.97;4.47;;;;;;;;;;5011609;28;20273;-80
2023/05/14 02:25:37;;;;;;;5.03;4.53;;;;;;;;;;5012376;28;20187;-80
2023/05/14 02:28:03;;;;;;;4.80;4.30;;;;;;;;;;5023052;28;20246;-80
2023/05/14 02:30:30;;;;;;;6.10;4.83;;;;;;;;;;4979475;28;20183;-80
2023/05/14 02:32:56;;;;;;;5.83;4.87;;;;;;;;;;5007489;28;20592;-80
2023/05/14 02:35:22;;;;;;;5.50;4.60;;;;;;;;;;4990984;28;20647;-80
2023/05/14 02:37:49;;;;;;;5.00;4.60;;;;;;;;;;4997941;28;20176;-80
2023/05/14 02:40:15;;;;;;;5.20;4.70;;;;;;;;;;4994806;28;20557;-79
2023/05/14 02:42:41;;;;;;;5.43;4.90;;;;;;;;;;5010684;28;20199;-80
2023/05/14 02:45:07;;;;;;;5.27;4.77;;;;;;;;;;5012845;28;20206;-80
2023/05/14 02:47:34;;;;;;;5.30;4.80;;;;;;;;;;5012613;28;20278;-80
2023/05/14 02:53:54;;;;;;;5.80;5.20;;;;;;;;;;5033420;23;20244;-74
2023/05/14 02:56:21;;;;;;;5.63;5.13;;;;;;;;;;5030356;28;20564;-74
2023/05/14 02:58:47;;;;;;;5.20;4.70;;;;;;;;;;5040971;28;20184;-74
2023/05/14 03:01:14;;;;;;;5.20;4.80;;;;;;;;;;5048442;28;20213;-74
2023/05/14 03:15:16;;;;;;;5.90;5.10;;;;;;;;;;5044871;28;20316;-78
2023/05/14 03:17:42;;;;;;;5.63;5.10;;;;;;;;;;5041658;28;20276;-78
2023/05/14 03:20:09;;;;;;;5.63;5.03;;;;;;;;;;5065109;28;20292;-78
2023/05/14 03:22:35;;;;;;;6.40;5.70;;;;;;;;;;5034713;23;20296;-74
2023/05/14 03:25:01;;;;;;;5.90;5.40;;;;;;;;;;5005617;28;20184;-73
2023/05/14 03:27:28;;;;;;;5.77;5.10;;;;;;;;;;4992247;28;20187;-74
2023/05/14 03:29:54;;;;;;;5.97;5.37;;;;;;;;;;4989697;28;20238;-74
2023/05/14 03:32:20;;;;;;;7.43;5.40;;;;;;;;;;4989209;28;20246;-74
2023/05/14 03:34:46;;;;;;;6.23;5.53;;;;;;;;;;5010916;22;20310;-73
2023/05/14 03:37:13;;;;;;;5.90;5.40;;;;;;;;;;5007902;28;20248;-74
2023/05/14 03:39:39;;;;;;;5.80;5.30;;;;;;;;;;5009715;28;20539;-73
2023/05/14 03:42:05;;;;;;;5.73;5.23;;;;;;;;;;4992385;28;20386;-74
2023/05/14 03:47:20;;;;;;;6.23;5.23;;;;;;;;;;5047423;28;20248;-75
2023/05/14 03:49:46;;;;;;;5.27;4.83;;;;;;;;;;5046812;28;20355;-75
2023/05/14 03:52:14;;;;;;;5.20;4.70;;;;;;;;;;5037844;22;20197;-73
2023/05/14 03:54:43;;;;;;;5.50;5.00;;;;;;;;;;4997243;28;20199;-78
2023/05/14 03:57:09;;;;;;;5.93;5.33;;;;;;;;;;5049870;28;20194;-78
2023/05/14 03:59:35;;;;;;;5.83;5.20;;;;;;;;;;5048401;28;20227;-78
2023/05/14 04:02:01;;;;;;;6.03;5.53;;;;;;;;;;5017640;28;20329;-78
2023/05/14 04:04:28;;;;;;;7.20;5.30;;;;;;;;;;5053483;22;20301;-75
2023/05/14 04:06:55;;;;;;;6.80;6.10;;;;;;;;;;5050727;28;20629;-75
2023/05/14 04:09:22;;;;;;;5.50;5.00;;;;;;;;;;5036877;28;20261;-75
2023/05/14 04:11:48;;;;;;;6.53;5.93;;;;;;;;;;5052160;28;20181;-75
2023/05/14 04:14:14;;;;;;;8.53;6.47;;;;;;;;;;5039049;22;20728;-74
2023/05/14 04:16:42;;;;;;;7.00;6.40;;;;;;;;;;5040386;28;20209;-74
2023/05/14 04:19:08;;;;;;;7.70;6.90;;;;;;;;;;5006081;28;20191;-73
2023/05/14 04:21:35;;;;;;;7.83;7.00;;;;;;;;;;5024919;28;20182;-73
2023/05/14 04:24:01;;;;;;;8.17;7.30;;;;;;;;;;5062198;23;20628;-78
2023/05/14 04:26:28;;;;;;;7.10;6.50;;;;;;;;;;5061281;28;20198;-78
2023/05/14 04:28:54;;;;;;;8.53;6.70;;;;;;;;;;5056382;28;20536;-73
2023/05/14 04:31:20;;;;;;;7.50;6.80;;;;;;;;;;5068106;28;20184;-73
2023/05/14 04:33:46;;;;;;;6.63;5.90;;;;;;;;;;5058170;22;20234;-78
2023/05/14 04:36:13;;;;;;;7.07;6.30;;;;;;;;;;5014760;28;20206;-78
2023/05/14 04:38:40;;;;;;;7.43;6.00;;;;;;;;;;5010122;28;20186;-78
2023/05/14 04:41:06;;;;;;;8.03;6.63;;;;;;;;;;5027911;28;20175;-78
2023/05/14 04:43:32;;;;;;;7.70;6.93;;;;;;;;;;5048115;22;20221;-78
2023/05/14 04:45:59;;;;;;;8.20;6.90;;;;;;;;;;5045228;28;20201;-78
2023/05/14 04:48:25;;;;;;;7.10;6.43;;;;;;;;;;5047255;28;20292;-77
2023/05/14 04:50:52;;;;;;;9.47;6.90;;;;;;;;;;5029161;28;20197;-78
2023/05/14 04:56:00;;;;;;;7.80;6.97;;;;;;;;;;5046026;28;20226;-74
2023/05/14 04:58:28;;;;;;;7.43;6.67;;;;;;;;;;5026672;28;20196;-74
2023/05/14 05:00:54;;;;;;;6.73;6.03;;;;;;;;;;5016873;28;20178;-74
2023/05/14 05:03:20;;;;;;;7.33;6.63;;;;;;;;;;5050520;22;20316;-79
2023/05/14 05:05:46;;;;;;;6.77;6.07;;;;;;;;;;5050121;28;20194;-78
2023/05/14 05:08:12;;;;;;;7.10;6.50;;;;;;;;;;5034422;28;20186;-78
2023/05/14 05:10:39;;;;;;;7.13;6.43;;;;;;;;;;5051407;28;20261;-79
2023/05/14 05:15:46;;;;;;;8.23;7.43;;;;;;;;;;5051719;28;20206;-79
2023/05/14 05:18:12;;;;;;;8.40;7.60;;;;;;;;;;5050807;28;20202;-79
2023/05/14 05:20:39;;;;;;;8.70;7.70;;;;;;;;;;4997208;28;20300;-79
2023/05/14 05:23:05;;;;;;;8.30;7.50;;;;;;;;;;5055450;23;20252;-74
2023/05/14 05:25:31;;;;;;;8.00;7.30;;;;;;;;;;5025684;28;20198;-74
2023/05/14 05:27:57;;;;;;;8.67;7.77;;;;;;;;;;5014718;28;20186;-74
2023/05/14 05:30:23;;;;;;;7.50;6.80;;;;;;;;;;5033448;28;20190;-74
2023/05/14 05:32:50;;;;;;;8.83;7.43;;;;;;;;;;5050454;23;20681;-74
2023/05/14 05:35:16;;;;;;;9.43;7.90;;;;;;;;;;5070011;28;20209;-73
2023/05/14 05:37:44;;;;;;;8.03;7.30;;;;;;;;;;5039526;28;20178;-73
2023/05/14 05:40:12;;;;;;;10.27;8.00;;;;;;;;;;5050224;28;20205;-74
2023/05/14 05:42:39;;;;;;;8.83;7.93;;;;;;;;;;5055246;23;20701;-79
2023/05/14 05:45:05;;;;;;;8.97;8.07;;;;;;;;;;5050279;28;20634;-79
2023/05/14 05:47:31;;;;;;;9.43;7.40;;;;;;;;;;5033132;28;20649;-79
2023/05/14 05:49:58;;;;;;;8.27;7.50;;;;;;;;;;5050380;28;20588;-79
2023/05/14 05:52:24;;;;;;;7.80;7.10;;;;;;;;;;5041328;23;20206;-77
2023/05/14 05:54:50;;;;;;;7.23;6.53;;;;;;;;;;5040368;28;20229;-76
2023/05/14 05:57:16;;;;;;;6.90;6.30;;;;;;;;;;5049814;28;20602;-77
2023/05/14 05:59:43;;;;;;;6.93;6.33;;;;;;;;;;5050431;28;20193;-77
2023/05/14 06:02:09;;;;;;;6.37;5.67;;;;;;;;;;5033218;28;20594;-77
2023/05/14 06:07:23;;;;;;;8.80;5.47;;;;;;;;;;5049382;28;20681;-79
2023/05/14 06:09:49;;;;;;;5.33;4.83;;;;;;;;;;5018547;28;20712;-78
2023/05/14 06:12:15;;;;;;;5.23;4.73;;;;;;;;;;5022663;23;20247;-78
2023/05/14 06:14:42;;;;;;;5.43;4.93;;;;;;;;;;5050929;28;20194;-78
2023/05/14 06:17:08;;;;;;;5.47;4.93;;;;;;;;;;5050892;28;20689;-78
2023/05/14 06:19:34;;;;;;;5.40;4.80;;;;;;;;;;5018359;28;20209;-78
2023/05/14 06:22:05;;;;;;;5.20;4.70;;;;;;;;;;5033840;28;20185;-78
2023/05/14 06:24:31;;;;;;;5.30;4.80;;;;;;;;;;5007192;28;20209;-74
2023/05/14 06:26:58;;;;;;;6.57;5.10;;;;;;;;;;4993175;28;20229;-74
2023/05/14 06:29:24;;;;;;;5.83;5.10;;;;;;;;;;4993256;28;20246;-74
2023/05/14 06:31:50;;;;;;;5.73;5.20;;;;;;;;;;4992621;28;20183;-74
2023/05/14 06:34:17;;;;;;;7.43;5.30;;;;;;;;;;5036640;22;20222;-74
2023/05/14 06:36:43;;;;;;;5.40;4.90;;;;;;;;;;5012628;28;20705;-74
2023/05/14 06:39:09;;;;;;;6.47;5.37;;;;;;;;;;5012710;28;20187;-74
2023/05/14 06:41:35;;;;;;;5.30;4.80;;;;;;;;;;5014664;28;20206;-74
2023/05/14 06:44:02;;;;;;;5.43;4.80;;;;;;;;;;5008093;22;20231;-79
2023/05/14 06:46:28;;;;;;;5.73;5.00;;;;;;;;;;5012744;28;20667;-78
2023/05/14 06:48:54;;;;;;;5.60;5.10;;;;;;;;;;4976099;28;20230;-78
2023/05/14 06:51:21;;;;;;;5.07;4.57;;;;;;;;;;4973700;28;20197;-78
2023/05/14 06:53:47;;;;;;;5.70;5.20;;;;;;;;;;5041700;23;20371;-75
2023/05/14 06:56:13;;;;;;;6.07;4.57;;;;;;;;;;5071884;28;20197;-75
2023/05/14 06:58:40;;;;;;;4.93;4.47;;;;;;;;;;5053646;28;20180;-75
2023/05/14 07:01:06;;;;;;;5.07;4.57;;;;;;;;;;5051693;28;20279;-75
2023/05/14 07:06:21;;;;;;;5.53;5.03;;;;;;;;;;5042167;28;20236;-82
2023/05/14 07:08:48;;;;;;;6.10;4.53;;;;;;;;;;5011739;28;20183;-79
2023/05/14 07:11:14;;;;;;;5.53;4.97;;;;;;;;;;4998177;28;20191;-79
2023/05/14 07:16:28;;;;;;;6.63;5.00;;;;;;;;;;5009316;28;20231;-76
2023/05/14 07:18:54;;;;;;;5.53;4.50;;;;;;;;;;5005314;28;20569;-77
2023/05/14 07:21:20;;;;;;;5.77;5.03;;;;;;;;;;5010543;28;20198;-76
2023/05/14 07:26:31;;;;;;;5.27;4.77;;;;;;;;;;5013500;28;20214;-76
2023/05/14 07:28:57;;;;;;;5.20;4.70;;;;;;;;;;5021386;28;20179;-76
2023/05/14 07:31:23;;;;;;;5.43;4.93;;;;;;;;;;5029958;28;20266;-76
2023/05/14 07:36:38;;;;;;;5.70;4.90;;;;;;;;;;5047471;28;20256;-78
2023/05/14 07:39:04;;;;;;;5.47;4.97;;;;;;;;;;5055983;28;20235;-79
2023/05/14 07:41:30;;;;;;;5.63;4.87;;;;;;;;;;5037651;28;20587;-79
2023/05/14 07:43:56;;;;;;;5.13;4.63;;;;;;;;;;5043204;22;20230;-76
2023/05/14 07:46:24;;;;;;;5.47;4.63;;;;;;;;;;5030797;28;20562;-75
2023/05/14 07:48:50;;;;;;;6.20;5.43;;;;;;;;;;5012887;28;20262;-75
2023/05/14 07:51:16;;;;;;;5.33;4.83;;;;;;;;;;5028969;28;20636;-75
2023/05/14 08:08:09;;;;;;;5.53;4.70;;;;;;;;;;5049169;28;20205;-77
2023/05/14 08:10:35;;;;;;;5.53;4.93;;;;;;;;;;5016648;28;20496;-76
2023/05/14 08:13:02;;;;;;;5.97;5.37;;;;;;;;;;5037196;23;20268;-76
2023/05/14 08:15:28;;;;;;;5.80;5.20;;;;;;;;;;5013021;28;20697;-76
2023/05/14 08:17:54;;;;;;;5.33;4.60;;;;;;;;;;5030507;28;20651;-76
2023/05/14 08:20:21;;;;;;;5.60;4.63;;;;;;;;;;5030436;28;20178;-77
2023/05/14 08:22:47;;;;;;;5.10;4.67;;;;;;;;;;5044853;22;20601;-76
2023/05/14 08:25:13;;;;;;;5.27;4.87;;;;;;;;;;4995756;28;20675;-76
2023/05/14 08:27:39;;;;;;;6.57;4.83;;;;;;;;;;5030787;28;20175;-76
2023/05/14 08:30:06;;;;;;;4.93;4.53;;;;;;;;;;5012772;28;20530;-76
2023/05/14 08:49:33;;;;;;;5.20;4.70;;;;;;;;;;5029131;28;20682;-79
2023/05/14 09:06:31;;;;;;;4.70;4.30;;;;;;;;;;5031626;28;20686;-77
2023/05/14 09:08:57;;;;;;;4.53;4.13;;;;;;;;;;5034314;28;20677;-77
2023/05/14 09:11:24;;;;;;;4.83;3.73;;;;;;;;;;5016396;28;20174;-77
2023/05/14 10:07:08;;;;;;;4.47;4.07;;;;;;;;;;5049192;28;20222;-77
2023/05/14 10:09:35;;;;;;;4.07;3.77;;;;;;;;;;5017446;28;20233;-77
2023/05/14 10:12:01;;;;;;;4.57;4.07;;;;;;;;;;5034574;28;20178;-77
2023/05/14 10:14:38;;;;;;;4.50;4.10;;;;;;;;;;5058799;22;20244;-76
2023/05/14 10:17:05;;;;;;;5.33;4.10;;;;;;;;;;4997829;28;20289;-76
2023/05/14 10:19:36;;;;;;;5.00;4.10;;;;;;;;;;4998020;28;20183;-77
2023/05/14 10:22:03;;;;;;;4.67;4.27;;;;;;;;;;5015941;28;20666;-76
2023/05/14 10:24:29;;;;;;;4.50;4.10;;;;;;;;;;4988072;28;20215;-79
2023/05/14 10:26:57;;;;;;;4.37;3.97;;;;;;;;;;4991380;28;20683;-79
2023/05/14 10:29:36;;;;;;;3.80;3.50;;;;;;;;;;4991332;28;20192;-78
2023/05/14 10:32:03;;;;;;;3.93;3.63;;;;;;;;;;4989668;28;20173;-78
2023/05/14 10:34:31;;;;;;;4.03;3.60;;;;;;;;;;5009016;28;20257;-76
2023/05/14 10:37:07;;;;;;;4.60;4.20;;;;;;;;;;4994432;28;20281;-76
2023/05/14 10:39:46;;;;;;;3.90;3.60;;;;;;;;;;4994871;28;20670;-76
2023/05/14 10:42:20;;;;;;;4.10;3.70;;;;;;;;;;5008410;22;20652;-78
2023/05/14 10:44:50;;;;;;;3.93;3.63;;;;;;;;;;5032000;28;20644;-78
2023/05/14 10:47:16;;;;;;;4.87;3.67;;;;;;;;;;5012854;28;20190;-78
2023/05/14 10:49:44;;;;;;;4.10;3.70;;;;;;;;;;5014140;28;20213;-78
2023/05/14 10:52:11;;;;;;;4.93;4.20;;;;;;;;;;5013434;28;20273;-78
2023/05/14 10:54:38;;;;;;;4.30;3.90;;;;;;;;;;5050702;23;20237;-78
2023/05/14 10:57:09;;;;;;;4.57;4.17;;;;;;;;;;5034219;28;20217;-78
2023/05/14 10:59:35;;;;;;;5.10;4.00;;;;;;;;;;5035468;28;20181;-78
2023/05/14 11:02:05;;;;;;;4.47;4.07;;;;;;;;;;5032688;28;20182;-77
2023/05/14 11:16:08;;;;;;;3.90;3.60;;;;;;;;;;5027676;28;20226;-78
2023/05/14 11:18:40;;;;;;;4.87;3.67;;;;;;;;;;5031164;28;20205;-78
2023/05/14 11:21:06;;;;;;;3.70;3.40;;;;;;;;;;5031555;28;20202;-78
2023/05/14 11:26:13;;;;;;;3.97;3.67;;;;;;;;;;5047773;28;20209;-79
2023/05/14 11:28:39;;;;;;;4.20;3.87;;;;;;;;;;5050631;28;20166;-79
2023/05/14 11:31:05;;;;;;;4.23;3.63;;;;;;;;;;5037025;28;20174;-79
2023/05/14 11:56:54;;;;;;;4.10;3.80;;;;;;;;;;5028566;28;20218;-76
2023/05/14 11:59:20;;;;;;;4.23;3.70;;;;;;;;;;5030773;28;20233;-76
2023/05/14 12:01:46;;;;;;;4.37;3.97;;;;;;;;;;5013278;28;20170;-76
2023/05/14 12:35:31;;;;;;;3.87;3.57;;;;;;;;;;5001871;28;20258;-80
2023/05/14 12:37:58;;;;;;;3.53;3.23;;;;;;;;;;4991219;28;20222;-80
2023/05/14 12:40:24;;;;;;;3.97;3.40;;;;;;;;;;4984950;28;20266;-80
2023/05/14 12:48:34;;;;;;;3.50;3.20;;;;;;;;;;5048346;28;20231;-78
2023/05/14 12:51:00;;;;;;;3.40;3.10;;;;;;;;;;5050013;28;20540;-78
2023/05/14 14:17:21;;;;;;;3.03;2.50;;;;;;;;;;5031459;28;20234;-79
2023/05/14 14:19:48;;;;;;;2.87;2.67;;;;;;;;;;5031244;28;20166;-78
2023/05/14 14:36:13;;;;;;;2.70;2.50;;;;;;;;;;4990059;28;20224;-78
2023/05/14 14:38:39;;;;;;;2.80;2.60;;;;;;;;;;4955118;28;20762;-78
2023/05/14 14:41:06;;;;;;;2.97;2.77;;;;;;;;;;4993408;28;20392;-78
2023/05/14 15:17:13;;;;;;;3.37;3.07;;;;;;;;;;5048147;28;20603;-81
2023/05/14 15:19:40;;;;;;;3.03;2.77;;;;;;;;;;5025415;28;20182;-78
2023/05/14 15:24:47;;;;;;;3.37;3.00;;;;;;;;;;5028397;28;20218;-81
2023/05/14 15:27:14;;;;;;;3.27;2.97;;;;;;;;;;5010005;28;20669;-81
2023/05/14 15:29:40;;;;;;;4.03;3.00;;;;;;;;;;5010849;28;20179;-80
2023/05/14 15:32:07;;;;;;;3.47;3.20;;;;;;;;;;4991068;28;20178;-81
2023/05/14 15:37:14;;;;;;;3.07;2.77;;;;;;;;;;5045248;28;20206;-80
2023/05/14 15:39:40;;;;;;;4.53;4.13;;;;;;;;;;5044134;28;20188;-84
2023/05/14 15:56:05;;;;;;;3.00;2.80;;;;;;;;;;5047313;28;20223;-80
2023/05/14 15:58:31;;;;;;;2.60;2.40;;;;;;;;;;5045947;28;20187;-80
2023/05/14 16:00:57;;;;;;;3.80;2.40;;;;;;;;;;5030810;28;20175;-82
2023/05/14 16:03:23;;;;;;;2.47;2.27;;;;;;;;;;5066544;23;20323;-78
2023/05/14 16:05:49;;;;;;;2.50;2.30;;;;;;;;;;5062059;28;20237;-78
2023/05/14 16:08:15;;;;;;;2.60;2.40;;;;;;;;;;5028619;28;20180;-78
2023/05/14 16:10:42;;;;;;;2.60;2.37;;;;;;;;;;5047561;28;20642;-78
2023/05/14 16:27:19;;;;;;;2.67;2.47;;;;;;;;;;5045182;28;20211;-80
2023/05/14 16:29:45;;;;;;;2.53;2.33;;;;;;;;;;5035784;28;20538;-81
2023/05/14 16:32:14;;;;;;;2.70;2.50;;;;;;;;;;5017880;28;20201;-80
2023/05/14 16:34:40;;;;;;;2.63;2.43;;;;;;;;;;5008407;28;20231;-78
2023/05/14 16:37:06;;;;;;;3.53;2.50;;;;;;;;;;5001548;28;20224;-78
2023/05/14 16:39:33;;;;;;;2.70;2.50;;;;;;;;;;5033200;28;20217;-78
2023/05/14 16:41:59;;;;;;;3.57;2.73;;;;;;;;;;5027335;28;20470;-78
2023/05/14 16:44:25;;;;;;;2.90;2.70;;;;;;;;;;4999460;28;20739;-78
2023/05/14 16:46:51;;;;;;;2.33;2.20;;;;;;;;;;5012940;28;20577;-77
2023/05/14 16:49:21;;;;;;;4.03;2.67;;;;;;;;;;5027546;28;20246;-78
2023/05/14 16:51:47;;;;;;;3.93;3.10;;;;;;;;;;5012807;28;20185;-80
2023/05/14 16:54:13;;;;;;;3.10;2.70;;;;;;;;;;5018728;28;20305;-78
2023/05/14 16:56:40;;;;;;;2.87;2.67;;;;;;;;;;5026856;28;20537;-78
2023/05/14 16:59:06;;;;;;;2.70;2.50;;;;;;;;;;5029741;28;20171;-78
2023/05/14 17:01:33;;;;;;;2.57;2.33;;;;;;;;;;5016051;28;20188;-78
2023/05/14 17:03:59;;;;;;;2.80;2.50;;;;;;;;;;5017584;28;20190;-78
2023/05/14 17:06:25;;;;;;;3.27;2.70;;;;;;;;;;5012535;28;20234;-78
2023/05/14 17:08:51;;;;;;;3.00;2.80;;;;;;;;;;5028774;28;20717;-78
2023/05/14 17:11:17;;;;;;;2.60;2.40;;;;;;;;;;5017214;28;20261;-78
2023/05/14 17:13:44;;;;;;;3.00;2.70;;;;;;;;;;5014435;28;20241;-78
2023/05/14 17:16:10;;;;;;;2.67;2.47;;;;;;;;;;5021009;28;20304;-78
2023/05/14 17:18:36;;;;;;;2.90;2.70;;;;;;;;;;5031690;28;20193;-78
2023/05/14 17:21:04;;;;;;;2.57;2.30;;;;;;;;;;5046388;28;20308;-77
2023/05/14 17:23:31;;;;;;;3.63;2.70;;;;;;;;;;5032598;28;20181;-76
2023/05/14 17:25:57;;;;;;;3.13;2.73;;;;;;;;;;5019268;28;20209;-77
2023/05/14 17:28:23;;;;;;;3.03;2.37;;;;;;;;;;5019892;28;20187;-78
2023/05/14 17:30:50;;;;;;;3.27;2.97;;;;;;;;;;5013776;28;20182;-77
2023/05/14 17:33:16;;;;;;;3.07;2.60;;;;;;;;;;5005926;28;20211;-77
2023/05/14 17:35:44;;;;;;;2.77;2.57;;;;;;;;;;5012067;28;20213;-78
2023/05/14 17:38:10;;;;;;;2.60;2.40;;;;;;;;;;5025926;28;20547;-77
2023/05/14 17:40:37;;;;;;;2.80;2.60;;;;;;;;;;5030996;28;20189;-78
2023/05/14 17:43:03;;;;;;;2.60;2.40;;;;;;;;;;5031918;28;20174;-77
2023/05/14 17:45:30;;;;;;;3.43;3.13;;;;;;;;;;5018569;28;20197;-77
2023/05/14 17:47:56;;;;;;;3.27;2.83;;;;;;;;;;5034012;28;20179;-76
2023/05/14 17:50:22;;;;;;;3.00;2.70;;;;;;;;;;5014869;28;20221;-76
2023/05/14 17:52:48;;;;;;;2.90;2.70;;;;;;;;;;5029114;28;20202;-76
2023/05/14 17:55:16;;;;;;;3.77;3.47;;;;;;;;;;5033675;28;20195;-77
2023/05/14 17:57:42;;;;;;;3.60;3.30;;;;;;;;;;5031267;28;20213;-78
2023/05/14 18:00:09;;;;;;;3.17;2.80;;;;;;;;;;5014467;28;20193;-77
2023/05/14 18:02:39;;;;;;;2.80;2.60;;;;;;;;;;5031711;28;20175;-77
2023/05/14 18:05:05;;;;;;;2.83;2.63;;;;;;;;;;5030421;28;20502;-76
2023/05/14 18:07:31;;;;;;;3.20;2.73;;;;;;;;;;5025983;28;20197;-77
2023/05/14 18:09:58;;;;;;;2.63;2.43;;;;;;;;;;4997425;28;20193;-77
2023/05/14 18:12:28;;;;;;;2.73;2.50;;;;;;;;;;5000844;28;20182;-77
2023/05/14 18:14:54;;;;;;;2.57;2.37;;;;;;;;;;5029409;28;20206;-78
2023/05/14 18:17:20;;;;;;;2.83;2.57;;;;;;;;;;5030762;28;20210;-78
2023/05/14 18:19:46;;;;;;;2.70;2.50;;;;;;;;;;5029818;28;20551;-78
2023/05/14 18:22:12;;;;;;;5.33;2.50;;;;;;;;;;4996807;28;20178;-78
2023/05/14 18:24:39;;;;;;;2.97;2.60;;;;;;;;;;5029572;28;20277;-78
2023/05/14 18:27:05;;;;;;;2.60;2.40;;;;;;;;;;5031229;28;20210;-78
2023/05/14 18:29:31;;;;;;;3.13;2.57;;;;;;;;;;5031155;28;20175;-78
2023/05/14 18:31:57;;;;;;;2.73;2.50;;;;;;;;;;5029418;28;20213;-78
2023/05/14 18:34:23;;;;;;;2.67;2.47;;;;;;;;;;5011754;28;20214;-78
2023/05/14 18:36:50;;;;;;;2.93;2.73;;;;;;;;;;5010662;28;20694;-78
2023/05/14 18:39:16;;;;;;;2.50;2.30;;;;;;;;;;5020121;28;20182;-78
2023/05/14 18:41:42;;;;;;;2.60;2.40;;;;;;;;;;5011263;28;20183;-78
2023/05/14 18:44:08;;;;;;;3.57;2.40;;;;;;;;;;5022473;28;20242;-78
2023/05/14 18:46:34;;;;;;;2.60;2.40;;;;;;;;;;4994423;28;20241;-78
2023/05/14 18:49:00;;;;;;;2.37;2.17;;;;;;;;;;5021450;28;20214;-78
2023/05/14 18:51:26;;;;;;;4.20;2.30;;;;;;;;;;5030771;28;20236;-78
2023/05/14 18:53:53;;;;;;;2.40;2.20;;;;;;;;;;5029675;28;20614;-86
2023/05/14 18:56:20;;;;;;;2.40;2.20;;;;;;;;;;5009976;28;20603;-79
2023/05/14 18:58:46;;;;;;;2.00;1.90;;;;;;;;;;5032336;28;20190;-79
2023/05/14 19:01:13;;;;;;;2.23;2.03;;;;;;;;;;5029252;28;20622;-81
2023/05/14 19:03:40;;;;;;;2.27;2.07;;;;;;;;;;4997135;28;20191;-80
2023/05/14 19:06:07;;;;;;;2.80;2.00;;;;;;;;;;4972922;28;20273;-81
2023/05/14 19:08:33;;;;;;;4.10;2.40;;;;;;;;;;5011022;28;20305;-78
2023/05/14 19:11:00;;;;;;;3.20;2.20;;;;;;;;;;5001619;28;20181;-81
2023/05/14 19:13:27;;;;;;;3.50;2.20;;;;;;;;;;5003976;28;20213;-82
2023/05/14 19:15:54;;;;;;;3.23;2.10;;;;;;;;;;5012300;28;20218;-81
2023/05/14 19:18:21;;;;;;;4.20;2.20;;;;;;;;;;4998303;28;20537;-79
2023/05/14 19:20:47;;;;;;;2.30;2.10;;;;;;;;;;5011212;28;20548;-79
2023/05/14 19:23:14;;;;;;;2.30;2.10;;;;;;;;;;5014624;28;20186;-79
2023/05/14 19:25:40;;;;;;;3.60;2.67;;;;;;;;;;5007458;28;20207;-79
2023/05/14 19:28:07;;;;;;;2.57;2.30;;;;;;;;;;5022169;28;20198;-79
2023/05/14 19:30:33;;;;;;;3.43;2.47;;;;;;;;;;5024877;28;20199;-78
2023/05/14 19:32:59;;;;;;;3.40;2.30;;;;;;;;;;4993749;28;20195;-81
2023/05/14 19:35:26;;;;;;;2.60;2.40;;;;;;;;;;5024612;28;20269;-82
2023/05/14 19:37:52;;;;;;;2.67;2.40;;;;;;;;;;5018006;28;20596;-82
2023/05/14 19:40:18;;;;;;;3.67;2.30;;;;;;;;;;5018038;28;20183;-76
2023/05/14 19:42:44;;;;;;;6.73;2.50;;;;;;;;;;5017531;28;20842;-76
2023/05/14 19:45:10;;;;;;;2.50;2.30;;;;;;;;;;5018209;28;20356;-76
2023/05/14 19:47:36;;;;;;;2.50;2.30;;;;;;;;;;5031963;28;20663;-75
2023/05/14 19:50:03;;;;;;;3.22;2.63;;;;;;;;;;5027896;28;20506;-75
2023/05/14 19:52:30;;;;;;;2.88;2.58;;;;;;;;;;5010668;28;20508;-75
2023/05/14 19:54:57;;;;;;;2.97;2.30;;;;;;;;;;5026961;28;20214;-76
2023/05/14 19:57:23;;;;;;;2.67;2.47;;;;;;;;;;5027739;28;20197;-75
2023/05/14 19:59:49;;;;;;;3.50;2.50;;;;;;;;;;5028374;28;20170;-74
2023/05/14 20:02:16;;;;;;;2.50;2.30;;;;;;;;;;5011615;28;20202;-79
2023/05/14 20:04:44;;;;;;;2.73;2.20;;;;;;;;;;5028633;28;20189;-74
2023/05/14 20:07:12;;;;;;;2.40;2.20;;;;;;;;;;5028695;28;20214;-73
2023/05/14 20:09:40;;;;;;;2.30;2.10;;;;;;;;;;5033821;28;20538;-73
2023/05/14 20:12:09;;;;;;;2.37;2.17;;;;;;;;;;4990145;28;20210;-78
2023/05/14 20:14:35;;;;;;;2.30;2.10;;;;;;;;;;5027270;28;20212;-78
2023/05/14 20:17:02;;;;;;;2.10;2.00;;;;;;;;;;5025604;28;20278;-76
2023/05/14 20:19:28;;;;;;;2.33;2.10;;;;;;;;;;5018958;28;20178;-75
2023/05/14 20:21:55;;;;;;;4.03;2.17;;;;;;;;;;5008987;28;20266;-78
2023/05/14 20:24:21;;;;;;;2.60;2.40;;;;;;;;;;5027803;28;20217;-78
2023/05/14 20:26:47;;;;;;;3.67;2.40;;;;;;;;;;5024499;28;20462;-78
2023/05/14 20:29:14;;;;;;;4.60;2.60;;;;;;;;;;5014158;28;20210;-80
2023/05/14 20:31:40;;;;;;;2.70;2.50;;;;;;;;;;4991249;28;20239;-74
2023/05/14 20:34:06;;;;;;;2.30;2.10;;;;;;;;;;4991090;28;1096379;-76
2023/05/14 20:36:32;;;;;;;3.00;2.10;;;;;;;;;;5032376;28;20195;-76
2023/05/14 20:38:59;;;;;;;2.53;2.10;;;;;;;;;;5033511;28;20589;-76
2023/05/14 20:41:25;;;;;;;2.70;2.50;;;;;;;;;;5015679;28;20691;-76
2023/05/14 20:43:52;;;;;;;2.50;2.30;;;;;;;;;;5032755;28;20194;-73
2023/05/14 20:46:18;;;;;;;2.97;2.40;;;;;;;;;;5015384;28;20198;-74
2023/05/14 20:48:46;;;;;;;2.80;2.60;;;;;;;;;;5034906;28;20669;-74
2023/05/14 20:51:12;;;;;;;2.97;2.43;;;;;;;;;;5035477;28;20614;-74
2023/05/14 20:53:39;;;;;;;2.63;2.40;;;;;;;;;;4981598;28;20215;-74
2023/05/14 20:56:05;;;;;;;7.87;2.50;;;;;;;;;;5031734;28;20269;-74
2023/05/14 20:58:32;;;;;;;3.13;2.73;;;;;;;;;;5018781;28;20192;-74